sensor_id;sensor_type;location;lat;lon;timestamp;P1;durP1;ratioP1;P2;durP2;ratioP2
79338;SDS011;74181;41.704;44.786;2023-12-04T00:00:03;16.33;;;7.60;;
79338;SDS011;74181;41.704;44.786;2023-12-04T00:02:38;15.48;;;7.60;;
79338;SDS011;74181;41.704;44.786;2023-12-04T00:05:04;14.23;;;7.03;;
79338;SDS011;74181;41.704;44.786;2023-12-04T00:07:31;15.32;;;7.32;;
79338;SDS011;74181;41.704;44.786;2023-12-04T00:09:57;14.30;;;6.97;;
79338;SDS011;74181;41.704;44.786;2023-12-04T00:12:23;17.03;;;7.40;;
79338;SDS011;74181;41.704;44.786;2023-12-04T00:14:49;14.98;;;7.40;;
79338;SDS011;74181;41.704;44.786;2023-12-04T00:17:16;14.90;;;7.50;;
79338;SDS011;74181;41.704;44.786;2023-12-04T00:19:43;15.15;;;7.10;;
79338;SDS011;74181;41.704;44.786;2023-12-04T00:22:09;14.05;;;7.07;;
79338;SDS011;74181;41.704;44.786;2023-12-04T00:24:35;16.90;;;7.47;;
79338;SDS011;74181;41.704;44.786;2023-12-04T00:27:01;15.55;;;7.22;;
79338;SDS011;74181;41.704;44.786;2023-12-04T00:29:27;15.50;;;6.93;;
79338;SDS011;74181;41.704;44.786;2023-12-04T00:31:53;15.00;;;6.60;;
79338;SDS011;74181;41.704;44.786;2023-12-04T00:34:20;13.52;;;6.78;;
79338;SDS011;74181;41.704;44.786;2023-12-04T00:36:46;14.90;;;6.33;;
79338;SDS011;74181;41.704;44.786;2023-12-04T00:39:12;12.90;;;6.45;;
79338;SDS011;74181;41.704;44.786;2023-12-04T00:41:38;12.98;;;5.85;;
79338;SDS011;74181;41.704;44.786;2023-12-04T00:44:04;14.43;;;6.40;;
79338;SDS011;74181;41.704;44.786;2023-12-04T00:46:30;14.40;;;6.07;;
79338;SDS011;74181;41.704;44.786;2023-12-04T00:48:56;12.87;;;6.30;;
79338;SDS011;74181;41.704;44.786;2023-12-04T00:51:22;12.70;;;6.47;;
79338;SDS011;74181;41.704;44.786;2023-12-04T00:53:48;15.65;;;6.95;;
79338;SDS011;74181;41.704;44.786;2023-12-04T00:56:14;13.98;;;6.60;;
79338;SDS011;74181;41.704;44.786;2023-12-04T00:58:40;15.95;;;6.97;;
79338;SDS011;74181;41.704;44.786;2023-12-04T01:01:06;14.73;;;6.90;;
79338;SDS011;74181;41.704;44.786;2023-12-04T01:03:32;15.80;;;7.03;;
79338;SDS011;74181;41.704;44.786;2023-12-04T01:05:58;14.43;;;6.68;;
79338;SDS011;74181;41.704;44.786;2023-12-04T01:08:25;14.95;;;6.53;;
79338;SDS011;74181;41.704;44.786;2023-12-04T01:10:51;15.23;;;7.13;;
79338;SDS011;74181;41.704;44.786;2023-12-04T01:13:17;16.97;;;7.33;;
79338;SDS011;74181;41.704;44.786;2023-12-04T01:15:43;13.88;;;7.03;;
79338;SDS011;74181;41.704;44.786;2023-12-04T01:18:10;14.48;;;6.90;;
79338;SDS011;74181;41.704;44.786;2023-12-04T01:20:36;12.82;;;6.78;;
79338;SDS011;74181;41.704;44.786;2023-12-04T01:23:02;13.93;;;6.18;;
79338;SDS011;74181;41.704;44.786;2023-12-04T01:25:28;12.90;;;5.93;;
79338;SDS011;74181;41.704;44.786;2023-12-04T01:27:54;16.20;;;7.00;;
79338;SDS011;74181;41.704;44.786;2023-12-04T01:30:20;13.30;;;5.95;;
79338;SDS011;74181;41.704;44.786;2023-12-04T01:32:46;14.02;;;6.40;;
79338;SDS011;74181;41.704;44.786;2023-12-04T01:35:12;13.57;;;6.40;;
79338;SDS011;74181;41.704;44.786;2023-12-04T01:37:38;13.37;;;6.80;;
79338;SDS011;74181;41.704;44.786;2023-12-04T01:40:05;14.27;;;7.00;;
79338;SDS011;74181;41.704;44.786;2023-12-04T01:42:32;12.68;;;6.32;;
79338;SDS011;74181;41.704;44.786;2023-12-04T01:44:58;10.57;;;5.85;;
79338;SDS011;74181;41.704;44.786;2023-12-04T01:47:24;13.05;;;5.95;;
79338;SDS011;74181;41.704;44.786;2023-12-04T01:49:51;13.97;;;5.93;;
79338;SDS011;74181;41.704;44.786;2023-12-04T01:52:17;13.40;;;6.05;;
79338;SDS011;74181;41.704;44.786;2023-12-04T01:54:43;12.52;;;6.20;;
79338;SDS011;74181;41.704;44.786;2023-12-04T01:57:09;12.20;;;5.75;;
79338;SDS011;74181;41.704;44.786;2023-12-04T01:59:36;17.55;;;6.03;;
79338;SDS011;74181;41.704;44.786;2023-12-04T02:02:02;15.43;;;6.17;;
79338;SDS011;74181;41.704;44.786;2023-12-04T02:04:29;15.23;;;6.35;;
79338;SDS011;74181;41.704;44.786;2023-12-04T02:06:56;12.07;;;6.00;;
79338;SDS011;74181;41.704;44.786;2023-12-04T02:09:22;12.82;;;6.30;;
79338;SDS011;74181;41.704;44.786;2023-12-04T02:11:48;14.45;;;6.43;;
79338;SDS011;74181;41.704;44.786;2023-12-04T02:14:14;11.93;;;5.60;;
79338;SDS011;74181;41.704;44.786;2023-12-04T02:16:41;12.20;;;6.07;;
79338;SDS011;74181;41.704;44.786;2023-12-04T02:19:08;13.50;;;6.20;;
79338;SDS011;74181;41.704;44.786;2023-12-04T02:21:38;12.50;;;5.85;;
79338;SDS011;74181;41.704;44.786;2023-12-04T02:24:04;13.80;;;6.20;;
79338;SDS011;74181;41.704;44.786;2023-12-04T02:26:34;12.37;;;5.80;;
79338;SDS011;74181;41.704;44.786;2023-12-04T02:29:04;12.48;;;5.40;;
79338;SDS011;74181;41.704;44.786;2023-12-04T02:31:34;11.38;;;5.63;;
79338;SDS011;74181;41.704;44.786;2023-12-04T02:34:00;12.73;;;5.60;;
79338;SDS011;74181;41.704;44.786;2023-12-04T02:36:27;11.50;;;5.57;;
79338;SDS011;74181;41.704;44.786;2023-12-04T02:38:53;13.07;;;5.47;;
79338;SDS011;74181;41.704;44.786;2023-12-04T02:41:19;11.70;;;5.50;;
79338;SDS011;74181;41.704;44.786;2023-12-04T02:43:45;13.23;;;5.82;;
79338;SDS011;74181;41.704;44.786;2023-12-04T02:46:11;13.73;;;6.55;;
79338;SDS011;74181;41.704;44.786;2023-12-04T02:48:37;12.75;;;6.30;;
79338;SDS011;74181;41.704;44.786;2023-12-04T02:51:03;12.07;;;6.33;;
79338;SDS011;74181;41.704;44.786;2023-12-04T02:53:30;14.82;;;6.38;;
79338;SDS011;74181;41.704;44.786;2023-12-04T02:55:56;15.82;;;6.47;;
79338;SDS011;74181;41.704;44.786;2023-12-04T02:58:22;15.45;;;6.47;;
79338;SDS011;74181;41.704;44.786;2023-12-04T03:00:48;11.73;;;6.30;;
79338;SDS011;74181;41.704;44.786;2023-12-04T03:03:14;18.20;;;7.07;;
79338;SDS011;74181;41.704;44.786;2023-12-04T03:05:40;15.15;;;6.85;;
79338;SDS011;74181;41.704;44.786;2023-12-04T03:08:06;15.10;;;6.15;;
79338;SDS011;74181;41.704;44.786;2023-12-04T03:10:32;13.80;;;6.32;;
79338;SDS011;74181;41.704;44.786;2023-12-04T03:12:58;14.02;;;7.10;;
79338;SDS011;74181;41.704;44.786;2023-12-04T03:15:24;16.30;;;7.57;;
79338;SDS011;74181;41.704;44.786;2023-12-04T03:17:51;19.23;;;7.88;;
79338;SDS011;74181;41.704;44.786;2023-12-04T03:20:18;31.58;;;8.10;;
79338;SDS011;74181;41.704;44.786;2023-12-04T03:22:44;22.90;;;6.88;;
79338;SDS011;74181;41.704;44.786;2023-12-04T03:25:10;13.38;;;6.50;;
79338;SDS011;74181;41.704;44.786;2023-12-04T03:27:36;16.83;;;6.57;;
79338;SDS011;74181;41.704;44.786;2023-12-04T03:30:02;13.57;;;6.78;;
79338;SDS011;74181;41.704;44.786;2023-12-04T03:32:30;12.88;;;6.35;;
79338;SDS011;74181;41.704;44.786;2023-12-04T03:34:56;11.57;;;5.70;;
79338;SDS011;74181;41.704;44.786;2023-12-04T03:37:22;12.38;;;6.00;;
79338;SDS011;74181;41.704;44.786;2023-12-04T03:39:48;13.93;;;6.00;;
79338;SDS011;74181;41.704;44.786;2023-12-04T03:42:14;12.98;;;5.68;;
79338;SDS011;74181;41.704;44.786;2023-12-04T03:44:40;14.07;;;6.20;;
79338;SDS011;74181;41.704;44.786;2023-12-04T03:47:06;13.75;;;6.75;;
79338;SDS011;74181;41.704;44.786;2023-12-04T03:49:32;14.23;;;7.00;;
79338;SDS011;74181;41.704;44.786;2023-12-04T03:51:58;15.33;;;7.40;;
79338;SDS011;74181;41.704;44.786;2023-12-04T03:54:24;17.70;;;7.15;;
79338;SDS011;74181;41.704;44.786;2023-12-04T03:56:50;14.90;;;7.05;;
79338;SDS011;74181;41.704;44.786;2023-12-04T03:59:16;14.55;;;7.40;;
79338;SDS011;74181;41.704;44.786;2023-12-04T04:01:42;15.85;;;7.22;;
79338;SDS011;74181;41.704;44.786;2023-12-04T04:04:08;16.93;;;7.80;;
79338;SDS011;74181;41.704;44.786;2023-12-04T04:06:34;15.25;;;7.60;;
79338;SDS011;74181;41.704;44.786;2023-12-04T04:09:00;18.05;;;8.15;;
79338;SDS011;74181;41.704;44.786;2023-12-04T04:11:26;15.40;;;7.95;;
79338;SDS011;74181;41.704;44.786;2023-12-04T04:13:52;17.35;;;8.15;;
79338;SDS011;74181;41.704;44.786;2023-12-04T04:16:18;16.13;;;7.97;;
79338;SDS011;74181;41.704;44.786;2023-12-04T04:18:44;15.10;;;8.00;;
79338;SDS011;74181;41.704;44.786;2023-12-04T04:21:10;15.90;;;7.65;;
79338;SDS011;74181;41.704;44.786;2023-12-04T04:23:36;18.13;;;7.78;;
79338;SDS011;74181;41.704;44.786;2023-12-04T04:26:02;15.95;;;7.68;;
79338;SDS011;74181;41.704;44.786;2023-12-04T04:28:28;15.87;;;8.00;;
79338;SDS011;74181;41.704;44.786;2023-12-04T04:30:54;16.10;;;7.82;;
79338;SDS011;74181;41.704;44.786;2023-12-04T04:33:21;17.48;;;7.65;;
79338;SDS011;74181;41.704;44.786;2023-12-04T04:35:47;12.65;;;6.80;;
79338;SDS011;74181;41.704;44.786;2023-12-04T04:38:13;15.30;;;6.68;;
79338;SDS011;74181;41.704;44.786;2023-12-04T04:40:39;15.10;;;6.73;;
79338;SDS011;74181;41.704;44.786;2023-12-04T04:43:08;13.20;;;6.45;;
79338;SDS011;74181;41.704;44.786;2023-12-04T04:45:35;16.77;;;6.75;;
79338;SDS011;74181;41.704;44.786;2023-12-04T04:48:01;15.90;;;7.00;;
79338;SDS011;74181;41.704;44.786;2023-12-04T04:50:27;14.00;;;6.40;;
79338;SDS011;74181;41.704;44.786;2023-12-04T04:52:53;16.23;;;6.77;;
79338;SDS011;74181;41.704;44.786;2023-12-04T04:55:19;18.05;;;7.13;;
79338;SDS011;74181;41.704;44.786;2023-12-04T04:57:45;15.15;;;7.68;;
79338;SDS011;74181;41.704;44.786;2023-12-04T05:00:11;15.10;;;7.20;;
79338;SDS011;74181;41.704;44.786;2023-12-04T05:02:37;15.45;;;7.20;;
79338;SDS011;74181;41.704;44.786;2023-12-04T05:05:04;23.63;;;8.27;;
79338;SDS011;74181;41.704;44.786;2023-12-04T05:07:30;17.95;;;8.10;;
79338;SDS011;74181;41.704;44.786;2023-12-04T05:09:56;17.83;;;8.30;;
79338;SDS011;74181;41.704;44.786;2023-12-04T05:12:22;17.55;;;8.02;;
79338;SDS011;74181;41.704;44.786;2023-12-04T05:14:48;24.63;;;8.60;;
79338;SDS011;74181;41.704;44.786;2023-12-04T05:17:14;17.00;;;8.60;;
79338;SDS011;74181;41.704;44.786;2023-12-04T05:19:40;22.98;;;9.18;;
79338;SDS011;74181;41.704;44.786;2023-12-04T05:22:07;21.05;;;9.00;;
79338;SDS011;74181;41.704;44.786;2023-12-04T05:24:33;20.08;;;8.25;;
79338;SDS011;74181;41.704;44.786;2023-12-04T05:27:01;17.35;;;8.25;;
79338;SDS011;74181;41.704;44.786;2023-12-04T05:29:28;21.50;;;8.63;;
79338;SDS011;74181;41.704;44.786;2023-12-04T05:31:54;19.42;;;8.38;;
79338;SDS011;74181;41.704;44.786;2023-12-04T05:34:20;19.70;;;8.30;;
79338;SDS011;74181;41.704;44.786;2023-12-04T05:36:46;19.77;;;9.35;;
79338;SDS011;74181;41.704;44.786;2023-12-04T05:39:12;17.73;;;8.90;;
79338;SDS011;74181;41.704;44.786;2023-12-04T05:41:38;20.73;;;9.30;;
79338;SDS011;74181;41.704;44.786;2023-12-04T05:44:04;19.73;;;8.77;;
79338;SDS011;74181;41.704;44.786;2023-12-04T05:46:30;16.65;;;8.68;;
79338;SDS011;74181;41.704;44.786;2023-12-04T05:48:57;17.33;;;8.45;;
79338;SDS011;74181;41.704;44.786;2023-12-04T05:51:24;16.80;;;7.63;;
79338;SDS011;74181;41.704;44.786;2023-12-04T05:53:50;20.13;;;7.60;;
79338;SDS011;74181;41.704;44.786;2023-12-04T05:56:16;21.95;;;8.10;;
79338;SDS011;74181;41.704;44.786;2023-12-04T05:58:42;19.23;;;8.32;;
79338;SDS011;74181;41.704;44.786;2023-12-04T06:01:08;17.67;;;8.85;;
79338;SDS011;74181;41.704;44.786;2023-12-04T06:03:34;20.05;;;8.90;;
79338;SDS011;74181;41.704;44.786;2023-12-04T06:06:00;21.00;;;9.13;;
79338;SDS011;74181;41.704;44.786;2023-12-04T06:08:26;18.38;;;7.78;;
79338;SDS011;74181;41.704;44.786;2023-12-04T06:10:52;18.90;;;8.27;;
79338;SDS011;74181;41.704;44.786;2023-12-04T06:13:18;17.63;;;7.53;;
79338;SDS011;74181;41.704;44.786;2023-12-04T06:15:44;17.52;;;8.00;;
79338;SDS011;74181;41.704;44.786;2023-12-04T06:18:10;16.10;;;7.53;;
79338;SDS011;74181;41.704;44.786;2023-12-04T06:20:36;15.95;;;6.32;;
79338;SDS011;74181;41.704;44.786;2023-12-04T06:23:02;14.45;;;6.05;;
79338;SDS011;74181;41.704;44.786;2023-12-04T06:25:28;12.57;;;5.68;;
79338;SDS011;74181;41.704;44.786;2023-12-04T06:27:55;15.45;;;6.10;;
79338;SDS011;74181;41.704;44.786;2023-12-04T06:30:21;12.40;;;6.47;;
79338;SDS011;74181;41.704;44.786;2023-12-04T06:32:48;13.52;;;6.10;;
79338;SDS011;74181;41.704;44.786;2023-12-04T06:35:14;12.85;;;5.38;;
79338;SDS011;74181;41.704;44.786;2023-12-04T06:37:41;17.15;;;6.40;;
79338;SDS011;74181;41.704;44.786;2023-12-04T06:40:07;15.88;;;6.50;;
79338;SDS011;74181;41.704;44.786;2023-12-04T06:42:37;20.73;;;7.67;;
79338;SDS011;74181;41.704;44.786;2023-12-04T06:45:03;25.88;;;9.57;;
79338;SDS011;74181;41.704;44.786;2023-12-04T06:47:31;20.00;;;9.35;;
79338;SDS011;74181;41.704;44.786;2023-12-04T06:49:57;24.48;;;10.98;;
79338;SDS011;74181;41.704;44.786;2023-12-04T06:52:23;21.73;;;9.70;;
79338;SDS011;74181;41.704;44.786;2023-12-04T06:54:49;22.57;;;9.63;;
79338;SDS011;74181;41.704;44.786;2023-12-04T06:57:15;20.33;;;10.23;;
79338;SDS011;74181;41.704;44.786;2023-12-04T06:59:42;23.23;;;10.88;;
79338;SDS011;74181;41.704;44.786;2023-12-04T07:02:08;25.10;;;10.55;;
79338;SDS011;74181;41.704;44.786;2023-12-04T07:04:34;24.63;;;12.35;;
79338;SDS011;74181;41.704;44.786;2023-12-04T07:07:00;25.43;;;11.30;;
79338;SDS011;74181;41.704;44.786;2023-12-04T07:09:33;26.60;;;10.50;;
79338;SDS011;74181;41.704;44.786;2023-12-04T07:12:00;23.08;;;10.23;;
79338;SDS011;74181;41.704;44.786;2023-12-04T07:14:26;23.17;;;10.13;;
79338;SDS011;74181;41.704;44.786;2023-12-04T07:16:52;18.77;;;9.27;;
79338;SDS011;74181;41.704;44.786;2023-12-04T07:19:18;21.10;;;9.07;;
79338;SDS011;74181;41.704;44.786;2023-12-04T07:21:45;19.85;;;8.95;;
79338;SDS011;74181;41.704;44.786;2023-12-04T07:24:11;19.60;;;9.27;;
79338;SDS011;74181;41.704;44.786;2023-12-04T07:26:37;19.77;;;9.35;;
79338;SDS011;74181;41.704;44.786;2023-12-04T07:29:03;22.42;;;9.63;;
79338;SDS011;74181;41.704;44.786;2023-12-04T07:31:29;24.23;;;10.27;;
79338;SDS011;74181;41.704;44.786;2023-12-04T07:33:56;23.45;;;10.20;;
79338;SDS011;74181;41.704;44.786;2023-12-04T07:36:22;23.85;;;10.30;;
79338;SDS011;74181;41.704;44.786;2023-12-04T07:38:50;18.05;;;9.50;;
79338;SDS011;74181;41.704;44.786;2023-12-04T07:41:17;22.40;;;10.00;;
79338;SDS011;74181;41.704;44.786;2023-12-04T07:43:43;20.97;;;10.27;;
79338;SDS011;74181;41.704;44.786;2023-12-04T07:46:09;22.75;;;10.48;;
79338;SDS011;74181;41.704;44.786;2023-12-04T07:48:37;20.80;;;9.50;;
79338;SDS011;74181;41.704;44.786;2023-12-04T07:51:03;19.02;;;9.35;;
79338;SDS011;74181;41.704;44.786;2023-12-04T07:53:29;22.65;;;9.55;;
79338;SDS011;74181;41.704;44.786;2023-12-04T07:55:55;22.63;;;10.87;;
79338;SDS011;74181;41.704;44.786;2023-12-04T07:58:21;27.55;;;13.07;;
79338;SDS011;74181;41.704;44.786;2023-12-04T08:00:47;21.77;;;10.25;;
79338;SDS011;74181;41.704;44.786;2023-12-04T08:03:13;22.30;;;10.05;;
79338;SDS011;74181;41.704;44.786;2023-12-04T08:05:39;21.65;;;9.80;;
79338;SDS011;74181;41.704;44.786;2023-12-04T08:08:05;21.80;;;10.00;;
79338;SDS011;74181;41.704;44.786;2023-12-04T08:10:32;23.27;;;10.60;;
79338;SDS011;74181;41.704;44.786;2023-12-04T08:12:58;21.90;;;9.95;;
79338;SDS011;74181;41.704;44.786;2023-12-04T08:15:24;21.95;;;9.80;;
79338;SDS011;74181;41.704;44.786;2023-12-04T08:17:50;21.67;;;9.88;;
79338;SDS011;74181;41.704;44.786;2023-12-04T08:20:17;21.97;;;10.67;;
79338;SDS011;74181;41.704;44.786;2023-12-04T08:22:47;23.20;;;10.82;;
79338;SDS011;74181;41.704;44.786;2023-12-04T08:25:13;26.42;;;12.27;;
79338;SDS011;74181;41.704;44.786;2023-12-04T08:27:39;24.27;;;9.88;;
79338;SDS011;74181;41.704;44.786;2023-12-04T08:30:05;22.33;;;10.55;;
79338;SDS011;74181;41.704;44.786;2023-12-04T08:32:32;32.97;;;12.10;;
79338;SDS011;74181;41.704;44.786;2023-12-04T08:34:58;25.15;;;11.55;;
79338;SDS011;74181;41.704;44.786;2023-12-04T08:37:24;22.83;;;10.73;;
79338;SDS011;74181;41.704;44.786;2023-12-04T08:39:50;24.63;;;11.27;;
79338;SDS011;74181;41.704;44.786;2023-12-04T08:42:16;23.98;;;11.45;;
79338;SDS011;74181;41.704;44.786;2023-12-04T08:44:42;21.07;;;10.27;;
79338;SDS011;74181;41.704;44.786;2023-12-04T08:47:08;21.83;;;10.27;;
79338;SDS011;74181;41.704;44.786;2023-12-04T08:49:34;21.00;;;10.07;;
79338;SDS011;74181;41.704;44.786;2023-12-04T08:52:00;22.15;;;10.35;;
79338;SDS011;74181;41.704;44.786;2023-12-04T08:54:26;24.45;;;10.63;;
79338;SDS011;74181;41.704;44.786;2023-12-04T08:56:52;20.27;;;10.03;;
79338;SDS011;74181;41.704;44.786;2023-12-04T08:59:19;18.23;;;8.70;;
79338;SDS011;74181;41.704;44.786;2023-12-04T09:01:46;22.52;;;8.30;;
79338;SDS011;74181;41.704;44.786;2023-12-04T09:04:12;16.23;;;8.38;;
79338;SDS011;74181;41.704;44.786;2023-12-04T09:06:38;18.02;;;8.15;;
79338;SDS011;74181;41.704;44.786;2023-12-04T09:09:04;16.40;;;8.27;;
79338;SDS011;74181;41.704;44.786;2023-12-04T09:11:30;20.10;;;8.07;;
79338;SDS011;74181;41.704;44.786;2023-12-04T09:13:56;23.08;;;10.30;;
79338;SDS011;74181;41.704;44.786;2023-12-04T09:16:22;17.70;;;8.23;;
79338;SDS011;74181;41.704;44.786;2023-12-04T09:18:49;19.13;;;8.73;;
79338;SDS011;74181;41.704;44.786;2023-12-04T09:21:15;17.60;;;8.10;;
79338;SDS011;74181;41.704;44.786;2023-12-04T09:23:41;16.30;;;7.95;;
79338;SDS011;74181;41.704;44.786;2023-12-04T09:26:08;16.20;;;7.68;;
79338;SDS011;74181;41.704;44.786;2023-12-04T09:28:35;15.98;;;7.20;;
79338;SDS011;74181;41.704;44.786;2023-12-04T09:31:02;19.00;;;7.38;;
79338;SDS011;74181;41.704;44.786;2023-12-04T09:33:28;18.23;;;7.27;;
79338;SDS011;74181;41.704;44.786;2023-12-04T09:35:54;17.13;;;7.85;;
79338;SDS011;74181;41.704;44.786;2023-12-04T09:38:20;17.60;;;7.45;;
79338;SDS011;74181;41.704;44.786;2023-12-04T09:40:46;19.77;;;8.98;;
79338;SDS011;74181;41.704;44.786;2023-12-04T09:43:12;19.90;;;7.95;;
79338;SDS011;74181;41.704;44.786;2023-12-04T09:45:39;16.63;;;7.93;;
79338;SDS011;74181;41.704;44.786;2023-12-04T09:48:06;18.15;;;7.65;;
79338;SDS011;74181;41.704;44.786;2023-12-04T09:50:35;21.73;;;8.57;;
79338;SDS011;74181;41.704;44.786;2023-12-04T09:53:01;23.08;;;8.00;;
79338;SDS011;74181;41.704;44.786;2023-12-04T09:55:28;15.82;;;7.65;;
79338;SDS011;74181;41.704;44.786;2023-12-04T09:57:54;20.63;;;8.60;;
79338;SDS011;74181;41.704;44.786;2023-12-04T10:00:20;17.45;;;8.15;;
79338;SDS011;74181;41.704;44.786;2023-12-04T10:02:47;19.95;;;8.35;;
79338;SDS011;74181;41.704;44.786;2023-12-04T10:05:13;18.35;;;8.85;;
79338;SDS011;74181;41.704;44.786;2023-12-04T10:07:39;19.17;;;8.90;;
79338;SDS011;74181;41.704;44.786;2023-12-04T10:10:05;23.93;;;8.87;;
79338;SDS011;74181;41.704;44.786;2023-12-04T10:12:33;19.98;;;9.32;;
79338;SDS011;74181;41.704;44.786;2023-12-04T10:15:02;19.38;;;8.70;;
79338;SDS011;74181;41.704;44.786;2023-12-04T10:17:32;19.77;;;9.00;;
79338;SDS011;74181;41.704;44.786;2023-12-04T10:20:08;23.35;;;9.45;;
79338;SDS011;74181;41.704;44.786;2023-12-04T10:22:39;22.83;;;9.50;;
79338;SDS011;74181;41.704;44.786;2023-12-04T10:25:13;21.10;;;10.43;;
79338;SDS011;74181;41.704;44.786;2023-12-04T10:27:40;23.42;;;10.85;;
79338;SDS011;74181;41.704;44.786;2023-12-04T10:30:07;21.88;;;10.65;;
79338;SDS011;74181;41.704;44.786;2023-12-04T10:32:36;24.75;;;10.38;;
79338;SDS011;74181;41.704;44.786;2023-12-04T10:35:02;23.53;;;10.50;;
79338;SDS011;74181;41.704;44.786;2023-12-04T10:37:29;24.50;;;11.20;;
79338;SDS011;74181;41.704;44.786;2023-12-04T10:39:55;25.20;;;10.25;;
79338;SDS011;74181;41.704;44.786;2023-12-04T10:42:28;17.65;;;9.25;;
79338;SDS011;74181;41.704;44.786;2023-12-04T10:44:56;21.88;;;9.95;;
79338;SDS011;74181;41.704;44.786;2023-12-04T10:47:23;34.77;;;11.50;;
79338;SDS011;74181;41.704;44.786;2023-12-04T10:49:49;23.35;;;10.45;;
79338;SDS011;74181;41.704;44.786;2023-12-04T10:52:16;23.35;;;10.48;;
79338;SDS011;74181;41.704;44.786;2023-12-04T10:54:48;19.60;;;10.38;;
79338;SDS011;74181;41.704;44.786;2023-12-04T10:57:36;23.17;;;11.40;;
79338;SDS011;74181;41.704;44.786;2023-12-04T11:00:03;23.60;;;11.23;;
79338;SDS011;74181;41.704;44.786;2023-12-04T11:02:34;25.45;;;11.68;;
79338;SDS011;74181;41.704;44.786;2023-12-04T11:05:07;23.38;;;10.82;;
79338;SDS011;74181;41.704;44.786;2023-12-04T11:07:42;16.85;;;8.68;;
79338;SDS011;74181;41.704;44.786;2023-12-04T11:10:10;19.85;;;8.50;;
79338;SDS011;74181;41.704;44.786;2023-12-04T11:12:39;16.27;;;7.13;;
79338;SDS011;74181;41.704;44.786;2023-12-04T11:15:09;20.13;;;8.18;;
79338;SDS011;74181;41.704;44.786;2023-12-04T11:17:40;17.48;;;7.70;;
79338;SDS011;74181;41.704;44.786;2023-12-04T11:20:10;17.23;;;8.10;;
79338;SDS011;74181;41.704;44.786;2023-12-04T11:22:42;19.00;;;8.15;;
79338;SDS011;74181;41.704;44.786;2023-12-04T11:25:09;17.40;;;7.53;;
79338;SDS011;74181;41.704;44.786;2023-12-04T11:27:35;20.50;;;8.50;;
79338;SDS011;74181;41.704;44.786;2023-12-04T11:30:02;18.27;;;8.32;;
79338;SDS011;74181;41.704;44.786;2023-12-04T11:32:29;17.02;;;8.05;;
79338;SDS011;74181;41.704;44.786;2023-12-04T11:34:55;19.38;;;8.00;;
79338;SDS011;74181;41.704;44.786;2023-12-04T11:37:23;19.60;;;7.73;;
79338;SDS011;74181;41.704;44.786;2023-12-04T11:39:49;23.67;;;8.55;;
79338;SDS011;74181;41.704;44.786;2023-12-04T11:42:23;19.80;;;8.32;;
79338;SDS011;74181;41.704;44.786;2023-12-04T11:44:50;27.52;;;10.68;;
79338;SDS011;74181;41.704;44.786;2023-12-04T11:47:22;27.92;;;11.13;;
79338;SDS011;74181;41.704;44.786;2023-12-04T11:49:48;31.30;;;11.67;;
79338;SDS011;74181;41.704;44.786;2023-12-04T11:52:14;27.58;;;11.95;;
79338;SDS011;74181;41.704;44.786;2023-12-04T11:54:59;29.08;;;12.27;;
79338;SDS011;74181;41.704;44.786;2023-12-04T11:57:37;25.27;;;11.63;;
79338;SDS011;74181;41.704;44.786;2023-12-04T12:03:00;32.77;;;12.13;;
79338;SDS011;74181;41.704;44.786;2023-12-04T12:05:28;31.38;;;12.27;;
79338;SDS011;74181;41.704;44.786;2023-12-04T12:07:57;31.30;;;13.30;;
79338;SDS011;74181;41.704;44.786;2023-12-04T12:10:26;31.73;;;13.23;;
79338;SDS011;74181;41.704;44.786;2023-12-04T12:12:53;32.33;;;13.82;;
79338;SDS011;74181;41.704;44.786;2023-12-04T12:15:19;37.80;;;13.90;;
79338;SDS011;74181;41.704;44.786;2023-12-04T12:17:45;32.95;;;14.55;;
79338;SDS011;74181;41.704;44.786;2023-12-04T12:20:12;39.08;;;14.20;;
79338;SDS011;74181;41.704;44.786;2023-12-04T12:22:41;36.85;;;13.23;;
79338;SDS011;74181;41.704;44.786;2023-12-04T12:25:12;41.05;;;15.50;;
79338;SDS011;74181;41.704;44.786;2023-12-04T12:27:38;44.53;;;16.90;;
79338;SDS011;74181;41.704;44.786;2023-12-04T12:30:05;37.78;;;13.80;;
79338;SDS011;74181;41.704;44.786;2023-12-04T12:32:32;42.85;;;12.30;;
79338;SDS011;74181;41.704;44.786;2023-12-04T12:34:59;36.53;;;12.98;;
79338;SDS011;74181;41.704;44.786;2023-12-04T12:37:25;37.08;;;12.45;;
79338;SDS011;74181;41.704;44.786;2023-12-04T12:39:51;44.37;;;14.20;;
79338;SDS011;74181;41.704;44.786;2023-12-04T12:42:21;39.45;;;16.42;;
79338;SDS011;74181;41.704;44.786;2023-12-04T12:44:49;30.73;;;13.10;;
79338;SDS011;74181;41.704;44.786;2023-12-04T12:47:15;33.05;;;12.90;;
79338;SDS011;74181;41.704;44.786;2023-12-04T12:49:41;34.78;;;12.65;;
79338;SDS011;74181;41.704;44.786;2023-12-04T12:52:07;31.93;;;12.40;;
79338;SDS011;74181;41.704;44.786;2023-12-04T12:54:36;39.97;;;17.48;;
79338;SDS011;74181;41.704;44.786;2023-12-04T12:57:05;36.55;;;15.00;;
79338;SDS011;74181;41.704;44.786;2023-12-04T12:59:32;37.53;;;15.05;;
79338;SDS011;74181;41.704;44.786;2023-12-04T13:01:59;31.33;;;13.38;;
79338;SDS011;74181;41.704;44.786;2023-12-04T13:04:26;34.30;;;11.90;;
79338;SDS011;74181;41.704;44.786;2023-12-04T13:06:59;32.03;;;11.68;;
79338;SDS011;74181;41.704;44.786;2023-12-04T13:09:25;33.45;;;11.70;;
79338;SDS011;74181;41.704;44.786;2023-12-04T13:11:51;35.20;;;12.63;;
79338;SDS011;74181;41.704;44.786;2023-12-04T13:14:17;28.23;;;11.68;;
79338;SDS011;74181;41.704;44.786;2023-12-04T13:16:43;26.47;;;9.73;;
79338;SDS011;74181;41.704;44.786;2023-12-04T13:19:09;30.00;;;10.57;;
79338;SDS011;74181;41.704;44.786;2023-12-04T13:21:36;25.58;;;10.70;;
79338;SDS011;74181;41.704;44.786;2023-12-04T13:24:02;27.30;;;11.30;;
79338;SDS011;74181;41.704;44.786;2023-12-04T13:26:33;32.28;;;11.50;;
79338;SDS011;74181;41.704;44.786;2023-12-04T13:28:59;22.77;;;10.63;;
79338;SDS011;74181;41.704;44.786;2023-12-04T13:31:25;24.45;;;10.20;;
79338;SDS011;74181;41.704;44.786;2023-12-04T13:33:53;22.48;;;9.20;;
79338;SDS011;74181;41.704;44.786;2023-12-04T13:36:20;24.05;;;8.80;;
79338;SDS011;74181;41.704;44.786;2023-12-04T13:38:46;23.63;;;9.02;;
79338;SDS011;74181;41.704;44.786;2023-12-04T13:41:12;20.57;;;9.07;;
79338;SDS011;74181;41.704;44.786;2023-12-04T13:44:05;20.83;;;9.20;;
79338;SDS011;74181;41.704;44.786;2023-12-04T13:46:31;28.58;;;10.32;;
79338;SDS011;74181;41.704;44.786;2023-12-04T13:48:57;22.67;;;9.82;;
79338;SDS011;74181;41.704;44.786;2023-12-04T13:51:24;21.25;;;8.35;;
79338;SDS011;74181;41.704;44.786;2023-12-04T13:53:51;19.90;;;8.37;;
79338;SDS011;74181;41.704;44.786;2023-12-04T13:56:22;24.50;;;8.68;;
79338;SDS011;74181;41.704;44.786;2023-12-04T13:58:48;25.92;;;10.40;;
79338;SDS011;74181;41.704;44.786;2023-12-04T14:01:24;20.13;;;8.60;;
79338;SDS011;74181;41.704;44.786;2023-12-04T14:03:54;24.83;;;8.80;;
79338;SDS011;74181;41.704;44.786;2023-12-04T14:06:27;18.70;;;7.73;;
79338;SDS011;74181;41.704;44.786;2023-12-04T14:08:55;20.05;;;8.50;;
79338;SDS011;74181;41.704;44.786;2023-12-04T14:11:22;22.25;;;8.02;;
79338;SDS011;74181;41.704;44.786;2023-12-04T14:13:48;23.42;;;8.88;;
79338;SDS011;74181;41.704;44.786;2023-12-04T14:16:15;23.48;;;8.38;;
79338;SDS011;74181;41.704;44.786;2023-12-04T14:18:44;19.70;;;9.00;;